SBJU/JDO METAR and TAF weather

Enter ICAO airport designator
Station Type Date Time Source
SBJU METAR 2022/12/10 02:00 UTC NOAA

SBJU 100200Z 00000KT 9999 SCT020 26/20 Q1016


Station Type Date Time Source
SBJU Decoded METAR 2022/12/10 02:00 UTC NOAA

Station name not available
Dec 09, 2022 - 09:00 PM EST / 2022.12.10 0200 UTC
Wind: Calm:0
Visibility: greater than 7 mile(s):0
Sky conditions: partly cloudy
Temperature: 78 F (26 C)
Dew Point: 68 F (20 C)
Relative Humidity: 69%
Pressure (altimeter): 30.00 in. Hg (1016 hPa)
ob: SBJU 100200Z 00000KT 9999 SCT020 26/20 Q1016
cycle: 2

Station Type Date Time Source
SBJU TAF 2011/11/01 00:05 UTC NOAA

TAF SBJU 012200Z 0200/0212 00000KT 9999 SCT020 TX28/0200Z TN24/0207Z
BECMG 0210/0212 06005KT
RMK PCE

Example: see airport list